»·PEaware :: N105MS KMRY-KRHV

N105MS :: KMRY-KRHV

FLIGHT INFORMATION

Flight Status: Arrived
Operator: Privately registered:
United States
More flights under this callsign
Pilot: Mike T. (22952)
Aircraft: CESSNA 172 SKYHAWK
(C172)
More flights by this aircraft type
Origin: KMRY Monterey Peninsula
United States
Destination: KRHV Reid-Hillview
United States
More flights between these airports :: More routes between these airports
Route: +MRY5 SNS V111 HENCE SJC
File this flight plan on PilotEdge
Remarks:
Altitude:
(Current/Filed)
6,000ft
Speed:
(Current/Filed)
110kts
Departed: 03-Nov-20 01:01 PM
Arrived: 03-Nov-20 01:44 PM
Distance/Time
Traveled:
45nm/0:42
Distance/Time
To Go:
Arrived

Flight Plot

Page will automatically refresh every two minutes.

Flight plan parsing failed; only flown route is shown


Map Options




Map Legend


Flown Route
Filed Route
Departure Airport
Arrival Airport
Navaid (VOR, NDB)
Fix

Horizontal Profiles

Position Reports

Time Latitude Longitude Heading Altitude Ground
Speed
03-Nov-20 12:30 36.588748 -121.854657 338 147ft 0kts
03-Nov-20 12:31 36.588748 -121.854657 338 147ft 0kts
03-Nov-20 12:32 36.588748 -121.854657 338 147ft 0kts
03-Nov-20 12:33 36.588748 -121.854657 338 147ft 0kts
03-Nov-20 12:34 36.588748 -121.854657 338 147ft 0kts
03-Nov-20 12:35 36.588748 -121.854657 338 147ft 0kts
03-Nov-20 12:36 36.588748 -121.854657 338 147ft 0kts
03-Nov-20 12:37 36.588748 -121.854657 338 147ft 0kts
03-Nov-20 12:38 36.588748 -121.854657 338 147ft 0kts
03-Nov-20 12:39 36.588748 -121.854657 338 147ft 0kts
03-Nov-20 12:40 36.588748 -121.854657 338 147ft 0kts
03-Nov-20 12:41 36.588748 -121.854657 338 147ft 0kts
03-Nov-20 12:42 36.588748 -121.854657 338 147ft 0kts
03-Nov-20 12:43 36.588748 -121.854657 338 147ft 0kts
03-Nov-20 12:44 36.588748 -121.854657 338 147ft 0kts
03-Nov-20 12:45 36.588748 -121.854657 338 147ft 0kts
03-Nov-20 12:46 36.588748 -121.854657 338 147ft 0kts
03-Nov-20 12:47 36.588748 -121.854657 338 147ft 0kts
03-Nov-20 12:48 36.588748 -121.854657 338 147ft 0kts
03-Nov-20 12:49 36.588748 -121.854657 338 147ft 0kts
03-Nov-20 12:50 36.588748 -121.854657 338 147ft 0kts
03-Nov-20 12:51 36.588940 -121.852638 113 149ft 16kts
03-Nov-20 12:52 36.586692 -121.846129 120 183ft 23kts
03-Nov-20 12:53 36.583927 -121.838212 113 222ft 29kts
03-Nov-20 12:54 36.582927 -121.835223 108 229ft 0kts
03-Nov-20 12:55 36.582927 -121.835223 108 229ft 0kts
03-Nov-20 12:56 36.582927 -121.835223 108 229ft 0kts
03-Nov-20 12:57 36.582927 -121.835223 108 229ft 0kts
03-Nov-20 12:58 36.582886 -121.835034 102 230ft 8kts
03-Nov-20 12:59 36.583553 -121.834187 291 230ft 20kts
03-Nov-20 13:00 36.591977 -121.858925 312 1017ft 85kts
03-Nov-20 13:01 36.613766 -121.867520 339 2093ft 84kts
03-Nov-20 13:02 36.636403 -121.875633 344 3079ft 86kts
03-Nov-20 13:03 36.659072 -121.884458 341 4021ft 86kts
03-Nov-20 13:04 36.682194 -121.891628 9 4881ft 89kts
03-Nov-20 13:05 36.706118 -121.891964 350 5705ft 89kts
03-Nov-20 13:06 36.734167 -121.893458 2 5865ft 105kts
03-Nov-20 13:07 36.765210 -121.892471 353 5865ft 122kts
03-Nov-20 13:08 36.799161 -121.894477 2 5767ft 117kts
03-Nov-20 13:09 36.831339 -121.898830 349 5860ft 115kts
03-Nov-20 13:10 36.863585 -121.900547 3 5918ft 116kts
03-Nov-20 13:11 36.896702 -121.903515 356 5842ft 121kts
03-Nov-20 13:12 36.930168 -121.906798 355 5814ft 119kts
03-Nov-20 13:13 36.963316 -121.911166 356 5774ft 120kts
03-Nov-20 13:14 36.996744 -121.913400 356 5745ft 119kts
03-Nov-20 13:15 37.029177 -121.915468 355 5826ft 117kts
03-Nov-20 13:16 37.061854 -121.917909 353 5885ft 118kts
03-Nov-20 13:17 37.095004 -121.921669 359 5805ft 121kts
03-Nov-20 13:18 37.128123 -121.924224 354 5809ft 119kts
03-Nov-20 13:19 37.161102 -121.926893 1 5824ft 118kts
03-Nov-20 13:20 37.193896 -121.930332 355 5833ft 118kts
03-Nov-20 13:21 37.226798 -121.934056 356 5838ft 119kts
03-Nov-20 13:22 37.256920 -121.949736 341 5828ft 120kts
03-Nov-20 13:23 37.270802 -121.925748 132 5758ft 123kts
03-Nov-20 13:24 37.247067 -121.898299 134 5857ft 118kts
03-Nov-20 13:25 37.223965 -121.868993 135 5873ft 118kts
03-Nov-20 13:26 37.200692 -121.839493 135 5864ft 119kts
03-Nov-20 13:27 37.177562 -121.809833 133 5865ft 118kts
03-Nov-20 13:28 37.153738 -121.782274 134 5116ft 116kts
03-Nov-20 13:29 37.130889 -121.754268 136 4692ft 111kts
03-Nov-20 13:31 37.109460 -121.727908 137 4712ft 105kts
03-Nov-20 13:32 37.104708 -121.698175 29 4662ft 107kts
03-Nov-20 13:33 37.129041 -121.677923 33 4680ft 108kts
03-Nov-20 13:34 37.153584 -121.657951 8 4662ft 110kts
03-Nov-20 13:35 37.179544 -121.674467 331 4280ft 104kts
03-Nov-20 13:36 37.202425 -121.693848 322 3695ft 99kts
03-Nov-20 13:37 37.223763 -121.714244 323 3057ft 96kts
03-Nov-20 13:38 37.242236 -121.731690 317 2767ft 74kts
03-Nov-20 13:39 37.258695 -121.748756 324 2461ft 81kts
03-Nov-20 13:40 37.276701 -121.765352 327 1778ft 80kts
03-Nov-20 13:41 37.294135 -121.782387 326 1245ft 80kts
03-Nov-20 13:42 37.311620 -121.799021 323 721ft 80kts
03-Nov-20 13:43 37.328915 -121.815408 324 219ft 69kts
03-Nov-20 13:44 37.335068 -121.819999 47 115ft 0kts

Navigation Log

Ident Type
Flight plan parsing failed, navigation log unavailable